Vancouver, Canada
Current Conditions -  °F | °C
As of 10:00 AM on Thursday 27 Nov 2014 (Local Time) from CYVR Reporting Station
Overcast Overcast  
Wind Chill: 54°   Ceiling: 5800
Heat Index: 54°   Visibility: 15mi
Dew Point: 52°   Wind: 22mph
Humidity: 94%   Direction: 140°SE
Pressure: 29.72"   Gusts: NA
Location:  49.26°N, 123.11°W
Report Text: CYVR 271800Z 14019KT 15SM FEW004 FEW035 BKN058 OVC180 12/11 A2972 RMK SC1SC1SC4AC2 SLP064
Loading
Personal Weather Stations






























Interactive Weather Map New forecast layout! Learn more

10-Day Weather Forecast

Advertisements
Track Severe Weather on mobile